createdAt,value
2019-05-07T00:01:51.384Z,3.87
2019-05-07T00:04:18.287Z,3.43
2019-05-07T00:06:46.898Z,4.03
2019-05-07T00:09:15.673Z,4.40
2019-05-07T00:11:44.352Z,3.90
2019-05-07T00:14:12.997Z,4.30
2019-05-07T00:16:42.300Z,3.43
2019-05-07T00:19:12.894Z,4.60
2019-05-07T00:21:42.350Z,4.10
2019-05-07T00:24:13.226Z,4.73
2019-05-07T00:26:42.985Z,3.60
2019-05-07T00:29:12.983Z,4.30
2019-05-07T00:31:42.141Z,4.50
2019-05-07T00:34:12.633Z,4.40
2019-05-07T00:36:52.564Z,3.80
2019-05-07T00:39:35.576Z,4.50
2019-05-07T00:42:12.691Z,5.20
2019-05-07T00:44:54.959Z,4.73
2019-05-07T00:47:23.634Z,4.97
2019-05-07T00:49:52.441Z,4.70
2019-05-07T00:52:22.593Z,5.70
2019-05-07T00:54:53.106Z,5.10
2019-05-07T00:57:22.929Z,5.97
2019-05-07T00:59:52.481Z,5.17
2019-05-07T01:02:22.926Z,6.37
2019-05-07T01:04:53.184Z,5.57
2019-05-07T01:07:22.875Z,5.67
2019-05-07T01:09:52.350Z,6.67
2019-05-07T01:12:22.185Z,5.77
2019-05-07T01:14:52.876Z,5.80
2019-05-07T01:17:22.761Z,6.40
2019-05-07T01:19:53.300Z,5.67
2019-05-07T01:22:22.327Z,6.00
2019-05-07T01:24:52.563Z,6.70
2019-05-07T01:27:22.644Z,6.23
2019-05-07T01:29:52.782Z,6.80
2019-05-07T01:32:23.297Z,6.33
2019-05-07T01:34:56.385Z,6.50
2019-05-07T01:37:25.034Z,6.30
2019-05-07T01:39:53.643Z,5.80
2019-05-07T01:42:22.436Z,5.70
2019-05-07T01:44:52.816Z,6.13
2019-05-07T01:47:23.541Z,5.30
2019-05-07T01:49:52.783Z,6.30
2019-05-07T01:52:22.720Z,6.07
2019-05-07T01:54:52.240Z,6.50
2019-05-07T01:57:23.003Z,5.93
2019-05-07T01:59:52.816Z,7.27
2019-05-07T02:02:23.394Z,6.50
2019-05-07T02:05:12.156Z,6.30
2019-05-07T02:07:42.925Z,6.30
2019-05-07T02:10:16.559Z,7.10
2019-05-07T02:12:45.167Z,5.90
2019-05-07T02:15:13.988Z,7.00
2019-05-07T02:17:43.083Z,6.70
2019-05-07T02:20:13.088Z,5.47
2019-05-07T02:22:42.778Z,6.03
2019-05-07T02:25:12.692Z,5.40
2019-05-07T02:27:42.124Z,5.60
2019-05-07T02:30:14.484Z,6.63
2019-05-07T02:32:43.207Z,6.17
2019-05-07T02:35:13.448Z,5.30
2019-05-07T02:37:51.840Z,6.43
2019-05-07T02:40:22.951Z,6.03
2019-05-07T02:42:53.607Z,6.70
2019-05-07T02:45:28.905Z,6.97
2019-05-07T02:47:57.519Z,6.03
2019-05-07T02:50:27.766Z,7.40
2019-05-07T02:53:03.923Z,6.70
2019-05-07T02:55:43.508Z,6.40
2019-05-07T02:58:13.689Z,7.17
2019-05-07T03:00:43.362Z,6.40
2019-05-07T03:03:13.753Z,8.20
2019-05-07T03:05:43.393Z,6.53
2019-05-07T03:08:13.337Z,6.67
2019-05-07T03:10:43.405Z,7.23
2019-05-07T03:13:13.736Z,6.70
2019-05-07T03:15:43.482Z,6.37
2019-05-07T03:18:13.795Z,6.17
2019-05-07T03:20:53.540Z,7.27
2019-05-07T03:23:42.903Z,8.13
2019-05-07T03:26:13.807Z,8.00
2019-05-07T03:28:53.891Z,7.90
2019-05-07T03:31:25.997Z,8.20
2019-05-07T03:34:16.480Z,7.27
2019-05-07T03:36:48.292Z,8.20
2019-05-07T03:39:16.790Z,7.77
2019-05-07T03:41:45.503Z,8.00
2019-05-07T03:44:15.840Z,8.60
2019-05-07T03:46:54.471Z,6.90
2019-05-07T03:49:34.201Z,7.80
2019-05-07T03:52:04.383Z,8.27
2019-05-07T03:54:34.086Z,8.30
2019-05-07T03:57:10.859Z,7.87
2019-05-07T03:59:34.192Z,7.83
2019-05-07T04:02:03.506Z,9.27
2019-05-07T04:04:33.267Z,8.97
2019-05-07T04:07:03.349Z,8.20
2019-05-07T04:09:33.341Z,9.00
2019-05-07T04:12:03.875Z,8.97
2019-05-07T04:14:34.417Z,8.60
2019-05-07T04:17:16.514Z,9.30
2019-05-07T04:19:33.288Z,9.97
2019-05-07T04:22:04.298Z,10.27
2019-05-07T04:24:33.962Z,8.80
2019-05-07T04:27:12.859Z,9.33
2019-05-07T04:29:42.933Z,10.57
2019-05-07T04:32:14.256Z,10.33
2019-05-07T04:34:55.999Z,8.57
2019-05-07T04:37:24.673Z,8.13
2019-05-07T04:39:53.988Z,9.07
2019-05-07T04:42:24.270Z,10.00
2019-05-07T04:44:54.128Z,9.00
2019-05-07T04:47:34.784Z,8.20
2019-05-07T04:49:53.612Z,9.60
2019-05-07T04:52:27.002Z,9.10
2019-05-07T04:54:55.614Z,8.97
2019-05-07T04:57:27.091Z,9.20
2019-05-07T04:59:57.114Z,8.47
2019-05-07T05:02:46.870Z,9.30
2019-05-07T05:05:16.552Z,8.70
2019-05-07T05:07:45.165Z,8.80
2019-05-07T05:10:14.462Z,8.60
2019-05-07T05:12:43.147Z,7.67
2019-05-07T05:15:12.840Z,8.23
2019-05-07T05:17:50.000Z,8.30
2019-05-07T05:20:13.136Z,7.80
2019-05-07T05:22:46.182Z,7.13
2019-05-07T05:25:17.624Z,8.07
2019-05-07T05:27:46.479Z,9.10
2019-05-07T05:30:21.987Z,8.30
2019-05-07T05:32:52.005Z,8.47
2019-05-07T05:35:22.208Z,8.00
2019-05-07T05:37:52.079Z,8.00
2019-05-07T05:40:22.714Z,8.27
2019-05-07T05:42:56.117Z,8.00
2019-05-07T05:45:35.809Z,8.10
2019-05-07T05:48:08.226Z,5.67
2019-05-07T05:50:43.877Z,6.60
2019-05-07T05:53:21.855Z,6.00
2019-05-07T05:55:52.803Z,6.40
2019-05-07T05:58:35.273Z,5.03
2019-05-07T06:01:08.391Z,7.40
2019-05-07T06:03:54.713Z,4.80
2019-05-07T06:06:24.956Z,5.33
2019-05-07T06:08:55.222Z,5.80
2019-05-07T06:11:32.176Z,5.43
2019-05-07T06:14:17.727Z,5.30
2019-05-07T06:16:54.485Z,5.50
2019-05-07T06:19:27.988Z,5.43
2019-05-07T06:22:16.625Z,4.77
2019-05-07T06:24:52.210Z,5.60
2019-05-07T06:27:22.904Z,4.23
2019-05-07T06:29:52.415Z,5.83
2019-05-07T06:32:22.925Z,5.27
2019-05-07T06:34:52.267Z,4.90
2019-05-07T06:37:22.844Z,5.47
2019-05-07T06:39:59.441Z,5.60
2019-05-07T06:42:45.889Z,5.10
2019-05-07T06:45:22.842Z,4.30
2019-05-07T06:47:52.058Z,6.10
2019-05-07T06:50:22.115Z,4.30
2019-05-07T06:52:51.924Z,3.70
2019-05-07T06:55:22.764Z,3.80
2019-05-07T06:57:53.008Z,4.20
2019-05-07T07:00:24.547Z,3.57
2019-05-07T07:03:02.055Z,3.20
2019-05-07T07:05:35.358Z,3.23
2019-05-07T07:08:23.081Z,3.07
2019-05-07T07:11:09.854Z,2.40
2019-05-07T07:13:39.377Z,2.80
2019-05-07T07:16:08.163Z,3.27
2019-05-07T07:18:48.352Z,2.20
2019-05-07T07:21:07.503Z,2.90
2019-05-07T07:23:36.087Z,2.43
2019-05-07T07:26:04.848Z,2.53
2019-05-07T07:28:33.897Z,2.50
2019-05-07T07:31:06.966Z,2.47
2019-05-07T07:33:40.570Z,2.07
2019-05-07T07:36:09.246Z,2.33
2019-05-07T07:38:38.222Z,2.17
2019-05-07T07:41:14.286Z,2.10
2019-05-07T07:43:42.893Z,2.20
2019-05-07T07:46:13.159Z,1.67
2019-05-07T07:48:43.547Z,2.13
2019-05-07T07:51:13.825Z,2.20
2019-05-07T07:53:42.650Z,1.57
2019-05-07T07:56:29.277Z,2.00
2019-05-07T07:59:02.070Z,1.70
2019-05-07T08:01:42.114Z,2.10
2019-05-07T08:04:12.235Z,2.10
2019-05-07T08:06:42.080Z,2.20
2019-05-07T08:09:12.989Z,2.17
2019-05-07T08:11:42.494Z,1.40
2019-05-07T08:14:12.622Z,1.83
2019-05-07T08:16:42.923Z,1.43
2019-05-07T08:19:21.767Z,2.37
2019-05-07T08:21:42.374Z,1.70
2019-05-07T08:24:12.253Z,3.27
2019-05-07T08:26:42.839Z,2.10
2019-05-07T08:29:11.999Z,1.60
2019-05-07T08:31:51.805Z,2.47
2019-05-07T08:34:25.002Z,2.30
2019-05-07T08:36:53.614Z,2.30
2019-05-07T08:39:25.018Z,2.17
2019-05-07T08:41:52.822Z,1.80
2019-05-07T08:44:23.179Z,2.10
2019-05-07T08:46:53.490Z,2.00
2019-05-07T08:49:35.662Z,1.50
2019-05-07T08:52:03.420Z,2.13
2019-05-07T08:54:32.947Z,1.40
2019-05-07T08:57:02.077Z,1.47
2019-05-07T08:59:32.102Z,1.67
2019-05-07T09:02:03.046Z,1.83
2019-05-07T09:04:32.757Z,2.57
2019-05-07T09:07:02.615Z,1.97
2019-05-07T09:09:32.364Z,1.40
2019-05-07T09:12:02.942Z,1.90
2019-05-07T09:14:32.320Z,1.70
2019-05-07T09:17:02.462Z,1.40
2019-05-07T09:19:46.266Z,1.50
2019-05-07T09:22:03.268Z,1.40
2019-05-07T09:24:33.386Z,2.30
2019-05-07T09:27:03.975Z,2.23
2019-05-07T09:29:43.312Z,2.20
2019-05-07T09:32:13.629Z,1.90
2019-05-07T09:34:43.858Z,1.83
2019-05-07T09:37:23.121Z,2.03
2019-05-07T09:39:51.943Z,1.60
2019-05-07T09:42:22.517Z,1.17
2019-05-07T09:44:52.755Z,1.73
2019-05-07T09:47:21.968Z,3.00
2019-05-07T09:50:02.065Z,2.40
2019-05-07T09:52:22.829Z,2.03
2019-05-07T09:54:52.194Z,1.13
2019-05-07T09:57:30.238Z,2.10
2019-05-07T09:59:53.070Z,1.43
2019-05-07T10:02:22.674Z,1.83
2019-05-07T10:04:52.712Z,2.07
2019-05-07T10:07:22.452Z,2.77
2019-05-07T10:09:52.402Z,2.20
2019-05-07T10:12:26.031Z,1.70
2019-05-07T10:14:56.530Z,2.30
2019-05-07T10:17:35.745Z,1.23
2019-05-07T10:20:19.267Z,1.40
2019-05-07T10:22:39.418Z,1.60
2019-05-07T10:25:08.387Z,0.97
2019-05-07T10:27:38.996Z,1.57
2019-05-07T10:30:08.367Z,1.80
2019-05-07T10:32:37.055Z,1.10
2019-05-07T10:35:07.287Z,1.37
2019-05-07T10:37:35.865Z,1.43
2019-05-07T10:40:09.323Z,1.60
2019-05-07T10:42:38.387Z,1.27
2019-05-07T10:45:13.043Z,2.00
2019-05-07T10:47:59.949Z,1.53
2019-05-07T10:50:36.470Z,1.43
2019-05-07T10:53:02.058Z,1.20
2019-05-07T10:55:32.816Z,1.07
2019-05-07T10:58:03.039Z,1.47
2019-05-07T11:00:33.068Z,1.17
2019-05-07T11:03:02.479Z,2.03
2019-05-07T11:05:32.654Z,1.37
2019-05-07T11:08:02.211Z,1.80
2019-05-07T11:10:32.635Z,1.27
2019-05-07T11:13:02.341Z,1.80
2019-05-07T11:15:32.738Z,1.60
2019-05-07T11:18:19.054Z,1.90
2019-05-07T11:20:50.470Z,1.90
2019-05-07T11:23:18.121Z,1.20
2019-05-07T11:25:47.213Z,1.37
2019-05-07T11:28:17.518Z,1.60
2019-05-07T11:30:46.373Z,2.17
2019-05-07T11:33:14.986Z,1.50
2019-05-07T11:35:43.591Z,1.30
2019-05-07T11:38:20.610Z,1.20
2019-05-07T11:40:43.006Z,1.40
2019-05-07T11:43:30.056Z,1.50
2019-05-07T11:46:18.839Z,1.63
2019-05-07T11:48:52.112Z,2.00
2019-05-07T11:51:28.527Z,1.50
2019-05-07T11:54:12.545Z,2.10
2019-05-07T11:56:42.202Z,1.47
2019-05-07T11:59:13.088Z,1.77
2019-05-07T12:01:47.170Z,1.50
2019-05-07T12:04:13.730Z,1.50
2019-05-07T12:06:42.325Z,1.60
2019-05-07T12:09:12.151Z,1.87
2019-05-07T12:11:42.621Z,1.40
2019-05-07T12:14:12.507Z,1.40
2019-05-07T12:16:42.554Z,1.33
2019-05-07T12:19:13.014Z,1.40
2019-05-07T12:21:42.390Z,1.73
2019-05-07T12:24:12.910Z,3.10
2019-05-07T12:26:42.907Z,1.50
2019-05-07T12:29:11.959Z,1.60
2019-05-07T12:31:42.329Z,2.70
2019-05-07T12:34:24.716Z,1.53
2019-05-07T12:36:53.402Z,2.37
2019-05-07T12:39:22.059Z,2.20
2019-05-07T12:41:52.489Z,1.63
2019-05-07T12:44:22.170Z,2.33
2019-05-07T12:46:52.434Z,1.47
2019-05-07T12:49:22.134Z,2.43
2019-05-07T12:51:57.988Z,1.73
2019-05-07T12:54:34.690Z,1.50
2019-05-07T12:57:02.530Z,2.30
2019-05-07T12:59:32.267Z,1.80
2019-05-07T13:02:26.712Z,2.13
2019-05-07T13:04:42.102Z,1.67
2019-05-07T13:07:15.054Z,1.90
2019-05-07T13:09:43.668Z,2.23
2019-05-07T13:12:12.342Z,1.30
2019-05-07T13:14:40.962Z,1.47
2019-05-07T13:17:09.643Z,1.80
2019-05-07T13:19:39.287Z,1.60
2019-05-07T13:22:08.025Z,1.93
2019-05-07T13:24:36.663Z,1.57
2019-05-07T13:27:05.499Z,1.10
2019-05-07T13:29:34.184Z,1.30
2019-05-07T13:32:03.952Z,1.70
2019-05-07T13:34:34.119Z,1.50
2019-05-07T13:37:04.919Z,2.00
2019-05-07T13:39:35.650Z,1.77
2019-05-07T13:42:06.175Z,1.47
2019-05-07T13:44:39.424Z,1.90
2019-05-07T13:47:19.116Z,2.00
2019-05-07T13:49:48.135Z,1.80
2019-05-07T13:52:16.904Z,1.90
2019-05-07T13:54:45.683Z,1.57
2019-05-07T13:57:14.362Z,1.53
2019-05-07T13:59:43.023Z,1.80
2019-05-07T14:02:15.357Z,1.10
2019-05-07T14:04:44.013Z,1.60
2019-05-07T14:07:12.776Z,1.50
2019-05-07T14:09:41.999Z,1.37
2019-05-07T14:12:12.351Z,1.27
2019-05-07T14:14:42.613Z,1.03
2019-05-07T14:17:12.646Z,1.57
2019-05-07T14:19:42.290Z,1.80
2019-05-07T14:22:16.340Z,1.50
2019-05-07T14:24:42.239Z,2.83
2019-05-07T14:27:11.012Z,1.83
2019-05-07T14:29:39.611Z,1.60
2019-05-07T14:32:09.940Z,1.83
2019-05-07T14:34:40.177Z,1.43
2019-05-07T14:37:13.195Z,1.73
2019-05-07T14:39:42.525Z,1.60
2019-05-07T14:42:12.963Z,1.50
2019-05-07T14:44:47.892Z,1.57
2019-05-07T14:47:18.143Z,1.60
2019-05-07T14:49:47.488Z,1.63
2019-05-07T14:52:29.020Z,2.17
2019-05-07T14:54:46.580Z,2.20
2019-05-07T14:57:15.233Z,2.20
2019-05-07T14:59:43.998Z,2.77
2019-05-07T15:02:12.838Z,2.60
2019-05-07T15:04:41.980Z,2.53
2019-05-07T15:07:11.958Z,1.70
2019-05-07T15:09:42.382Z,1.47
2019-05-07T15:12:14.444Z,2.03
2019-05-07T15:14:42.141Z,1.60
2019-05-07T15:17:15.367Z,1.80
2019-05-07T15:19:43.949Z,1.90
2019-05-07T15:22:43.564Z,2.10
2019-05-07T15:24:59.886Z,2.10
2019-05-07T15:27:28.616Z,1.67
2019-05-07T15:29:57.431Z,1.30
2019-05-07T15:32:26.333Z,1.50
2019-05-07T15:34:54.922Z,1.80
2019-05-07T15:37:23.623Z,1.27
2019-05-07T15:39:52.687Z,2.03
2019-05-07T15:42:22.221Z,1.40
2019-05-07T15:44:52.786Z,1.20
2019-05-07T15:47:22.984Z,1.73
2019-05-07T15:49:51.576Z,1.10
2019-05-07T15:52:38.233Z,1.77
2019-05-07T15:55:07.066Z,2.13
2019-05-07T15:57:38.473Z,1.23
2019-05-07T16:00:12.458Z,1.90
2019-05-07T16:02:45.147Z,1.50
2019-05-07T16:05:13.155Z,1.90
2019-05-07T16:07:42.726Z,1.67
2019-05-07T16:10:12.102Z,1.40
2019-05-07T16:12:42.366Z,1.90
2019-05-07T16:15:13.665Z,1.37
2019-05-07T16:17:43.282Z,1.70
2019-05-07T16:20:14.246Z,1.60
2019-05-07T16:22:48.000Z,2.20
2019-05-07T16:25:16.808Z,2.10
2019-05-07T16:27:45.427Z,1.77
2019-05-07T16:30:14.669Z,1.70
2019-05-07T16:32:43.335Z,1.70
2019-05-07T16:35:16.071Z,1.63
2019-05-07T16:37:43.507Z,2.00
2019-05-07T16:40:12.764Z,1.90
2019-05-07T16:42:42.829Z,1.83
2019-05-07T16:45:13.192Z,1.73
2019-05-07T16:47:41.971Z,1.20
2019-05-07T16:50:13.024Z,2.30
2019-05-07T16:52:42.007Z,1.87
2019-05-07T16:55:12.377Z,1.50
2019-05-07T16:57:48.366Z,1.70
2019-05-07T17:00:18.942Z,1.63
2019-05-07T17:02:49.253Z,2.17
2019-05-07T17:05:18.128Z,2.17
2019-05-07T17:08:02.266Z,1.80
2019-05-07T17:10:31.826Z,1.17
2019-05-07T17:13:02.766Z,1.60
2019-05-07T17:15:33.703Z,2.00
2019-05-07T17:18:02.914Z,2.03
2019-05-07T17:20:32.741Z,1.83
2019-05-07T17:23:03.030Z,2.20
2019-05-07T17:25:37.595Z,2.30
2019-05-07T17:28:07.576Z,2.47
2019-05-07T17:30:37.716Z,2.10
2019-05-07T17:33:08.038Z,1.77
2019-05-07T17:35:36.687Z,2.00
2019-05-07T17:38:09.637Z,1.87
2019-05-07T17:40:35.707Z,2.07
2019-05-07T17:43:04.494Z,2.43
2019-05-07T17:45:33.172Z,1.77
2019-05-07T17:48:03.242Z,2.23
2019-05-07T17:50:37.126Z,1.63
2019-05-07T17:53:05.741Z,1.70
2019-05-07T17:55:34.412Z,2.00
2019-05-07T17:58:03.009Z,1.60
2019-05-07T18:00:32.851Z,2.40
2019-05-07T18:03:03.298Z,2.00
2019-05-07T18:05:32.411Z,2.00
2019-05-07T18:08:02.542Z,2.10
2019-05-07T18:10:31.952Z,1.70
2019-05-07T18:13:00.732Z,2.10
2019-05-07T18:15:29.341Z,1.90
2019-05-07T18:18:03.060Z,2.50
2019-05-07T18:20:32.762Z,2.70
2019-05-07T18:23:02.626Z,2.47
2019-05-07T18:25:32.395Z,2.70
2019-05-07T18:28:01.830Z,2.47
2019-05-07T18:30:32.561Z,2.53
2019-05-07T18:33:02.739Z,2.30
2019-05-07T18:35:32.140Z,1.60
2019-05-07T18:38:02.593Z,1.60
2019-05-07T18:40:31.386Z,1.87
2019-05-07T18:43:00.086Z,2.40
2019-05-07T18:45:28.815Z,1.97
2019-05-07T18:47:57.506Z,1.80
2019-05-07T18:50:26.145Z,2.50
2019-05-07T18:52:54.817Z,2.27
2019-05-07T18:55:23.595Z,2.10
2019-05-07T18:57:52.193Z,2.80
2019-05-07T19:00:25.336Z,2.40
2019-05-07T19:02:54.051Z,3.10
2019-05-07T19:05:22.673Z,4.40
2019-05-07T19:08:03.807Z,3.57
2019-05-07T19:10:22.042Z,2.30
2019-05-07T19:12:52.712Z,2.90
2019-05-07T19:15:22.060Z,2.70
2019-05-07T19:17:51.015Z,3.43
2019-05-07T19:20:21.691Z,2.80
2019-05-07T19:22:51.831Z,2.50
2019-05-07T19:25:20.707Z,3.23
2019-05-07T19:27:52.637Z,2.77
2019-05-07T19:30:21.870Z,2.67
2019-05-07T19:32:52.145Z,3.17
2019-05-07T19:35:22.577Z,2.70
2019-05-07T19:37:52.864Z,2.60
2019-05-07T19:40:21.817Z,3.07
2019-05-07T19:42:52.259Z,2.43
2019-05-07T19:45:23.956Z,2.80
2019-05-07T19:47:52.349Z,3.10
2019-05-07T19:50:23.167Z,2.50
2019-05-07T19:52:52.181Z,3.40
2019-05-07T19:55:21.963Z,2.83
2019-05-07T19:57:52.428Z,3.43
2019-05-07T20:00:22.959Z,4.07
2019-05-07T20:02:53.790Z,4.13
2019-05-07T20:05:22.383Z,4.20
2019-05-07T20:07:55.222Z,4.03
2019-05-07T20:10:39.545Z,4.57
2019-05-07T20:13:08.139Z,6.03
2019-05-07T20:15:39.680Z,5.93
2019-05-07T20:18:08.349Z,4.47
2019-05-07T20:20:36.957Z,4.87
2019-05-07T20:23:05.722Z,5.87
2019-05-07T20:25:34.686Z,5.20
2019-05-07T20:28:03.357Z,5.10
2019-05-07T20:30:33.672Z,4.70
2019-05-07T20:33:03.111Z,5.67
2019-05-07T20:35:32.604Z,6.30
2019-05-07T20:38:02.912Z,5.43
2019-05-07T20:40:32.466Z,5.17
2019-05-07T20:43:01.943Z,7.70
2019-05-07T20:45:32.059Z,7.43
2019-05-07T20:48:02.519Z,8.63
2019-05-07T20:50:33.281Z,6.37
2019-05-07T20:53:02.110Z,5.63
2019-05-07T20:55:35.156Z,5.00
2019-05-07T20:58:05.638Z,5.20
2019-05-07T21:00:34.305Z,4.70
2019-05-07T21:03:23.906Z,4.50
2019-05-07T21:05:53.058Z,4.23
2019-05-07T21:08:22.799Z,5.27
2019-05-07T21:10:53.502Z,4.30
2019-05-07T21:13:28.451Z,4.73
2019-05-07T21:15:52.736Z,4.43
2019-05-07T21:18:23.260Z,4.20
2019-05-07T21:20:52.897Z,4.30
2019-05-07T21:23:23.027Z,4.80
2019-05-07T21:25:53.011Z,4.97
2019-05-07T21:28:21.826Z,4.17
2019-05-07T21:30:52.171Z,4.23
2019-05-07T21:33:22.868Z,3.80
2019-05-07T21:35:52.320Z,3.80
2019-05-07T21:38:22.352Z,4.30
2019-05-07T21:40:51.437Z,3.70
2019-05-07T21:43:22.240Z,4.30
2019-05-07T21:45:50.336Z,4.27
2019-05-07T21:48:19.322Z,4.20
2019-05-07T21:50:47.929Z,4.30
2019-05-07T21:53:32.178Z,4.07
2019-05-07T21:56:14.036Z,4.43
2019-05-07T21:58:44.348Z,4.63
2019-05-07T22:01:17.178Z,4.67
2019-05-07T22:03:47.488Z,3.93
2019-05-07T22:06:16.286Z,4.40
2019-05-07T22:08:44.966Z,4.80
2019-05-07T22:11:13.898Z,3.70
2019-05-07T22:13:43.487Z,4.67
2019-05-07T22:16:13.013Z,5.40
2019-05-07T22:18:42.731Z,4.73
2019-05-07T22:21:12.473Z,4.00
2019-05-07T22:23:42.789Z,4.70
2019-05-07T22:26:20.364Z,4.80
2019-05-07T22:28:42.167Z,5.27
2019-05-07T22:31:31.179Z,4.90
2019-05-07T22:34:02.115Z,4.67
2019-05-07T22:36:32.723Z,4.63
2019-05-07T22:39:01.964Z,4.97
2019-05-07T22:41:31.880Z,4.60
2019-05-07T22:44:02.557Z,4.87
2019-05-07T22:46:32.698Z,4.23
2019-05-07T22:49:03.143Z,4.20
2019-05-07T22:51:31.718Z,4.33
2019-05-07T22:54:04.061Z,4.43
2019-05-07T22:56:48.801Z,4.60
2019-05-07T22:59:17.393Z,4.90
2019-05-07T23:01:46.019Z,5.07
2019-05-07T23:04:14.637Z,3.93
2019-05-07T23:06:43.725Z,4.53
2019-05-07T23:09:12.839Z,5.57
2019-05-07T23:11:41.542Z,4.00
2019-05-07T23:14:11.829Z,5.00
2019-05-07T23:16:40.585Z,4.13
2019-05-07T23:19:09.223Z,4.97
2019-05-07T23:21:37.832Z,3.90
2019-05-07T23:24:06.456Z,3.87
2019-05-07T23:26:47.438Z,4.20
2019-05-07T23:29:05.728Z,4.33
2019-05-07T23:31:34.322Z,4.50
2019-05-07T23:34:02.960Z,4.40
2019-05-07T23:36:31.635Z,4.43
2019-05-07T23:39:02.540Z,4.10
2019-05-07T23:41:35.640Z,4.57
2019-05-07T23:44:12.633Z,4.87
2019-05-07T23:46:44.394Z,4.30
2019-05-07T23:49:12.570Z,4.90
2019-05-07T23:51:42.172Z,5.00
2019-05-07T23:54:12.175Z,5.33
2019-05-07T23:56:42.660Z,4.87
2019-05-07T23:59:14.470Z,5.00
